sensor_id;sensor_type;location;lat;lon;timestamp;temperature;humidity
37242;DHT22;23135;51.078;12.108;2022-07-05T00:00:36;15.80;99.90
37242;DHT22;23135;51.078;12.108;2022-07-05T00:03:01;15.70;99.90
37242;DHT22;23135;51.078;12.108;2022-07-05T00:05:27;15.70;99.90
37242;DHT22;23135;51.078;12.108;2022-07-05T00:07:53;15.60;99.90
37242;DHT22;23135;51.078;12.108;2022-07-05T00:10:18;15.50;99.90
37242;DHT22;23135;51.078;12.108;2022-07-05T00:12:44;15.40;99.90
37242;DHT22;23135;51.078;12.108;2022-07-05T00:15:09;15.30;99.90
37242;DHT22;23135;51.078;12.108;2022-07-05T00:17:35;15.30;99.90
37242;DHT22;23135;51.078;12.108;2022-07-05T00:20:01;15.20;99.90
37242;DHT22;23135;51.078;12.108;2022-07-05T00:22:27;15.20;99.90
37242;DHT22;23135;51.078;12.108;2022-07-05T00:24:53;15.20;99.90
37242;DHT22;23135;51.078;12.108;2022-07-05T00:27:18;15.10;99.90
37242;DHT22;23135;51.078;12.108;2022-07-05T00:29:44;15.10;99.90
37242;DHT22;23135;51.078;12.108;2022-07-05T00:32:10;15.10;99.90
37242;DHT22;23135;51.078;12.108;2022-07-05T00:34:36;15.00;99.90
37242;DHT22;23135;51.078;12.108;2022-07-05T00:37:02;14.90;99.90
37242;DHT22;23135;51.078;12.108;2022-07-05T00:39:27;14.90;99.90
37242;DHT22;23135;51.078;12.108;2022-07-05T00:41:53;14.90;99.90
37242;DHT22;23135;51.078;12.108;2022-07-05T00:44:29;14.80;99.90
37242;DHT22;23135;51.078;12.108;2022-07-05T00:46:55;14.80;99.90
37242;DHT22;23135;51.078;12.108;2022-07-05T00:49:21;14.80;99.90
37242;DHT22;23135;51.078;12.108;2022-07-05T00:51:47;14.70;99.90
37242;DHT22;23135;51.078;12.108;2022-07-05T00:54:12;14.70;99.90
37242;DHT22;23135;51.078;12.108;2022-07-05T00:56:38;14.60;99.90
37242;DHT22;23135;51.078;12.108;2022-07-05T00:59:04;14.50;99.90
37242;DHT22;23135;51.078;12.108;2022-07-05T01:01:29;14.50;99.90
37242;DHT22;23135;51.078;12.108;2022-07-05T01:03:55;14.50;99.90
37242;DHT22;23135;51.078;12.108;2022-07-05T01:06:20;14.40;99.90
37242;DHT22;23135;51.078;12.108;2022-07-05T01:08:46;14.40;99.90
37242;DHT22;23135;51.078;12.108;2022-07-05T01:11:13;14.30;99.90
37242;DHT22;23135;51.078;12.108;2022-07-05T01:13:40;14.30;99.90
37242;DHT22;23135;51.078;12.108;2022-07-05T01:16:06;14.30;99.90
37242;DHT22;23135;51.078;12.108;2022-07-05T01:18:33;14.20;99.90
37242;DHT22;23135;51.078;12.108;2022-07-05T01:20:59;14.20;99.90
37242;DHT22;23135;51.078;12.108;2022-07-05T01:23:30;14.20;99.90
37242;DHT22;23135;51.078;12.108;2022-07-05T01:25:58;14.10;99.90
37242;DHT22;23135;51.078;12.108;2022-07-05T01:28:24;14.10;99.90
37242;DHT22;23135;51.078;12.108;2022-07-05T01:30:50;14.00;99.90
37242;DHT22;23135;51.078;12.108;2022-07-05T01:33:16;14.00;99.90
37242;DHT22;23135;51.078;12.108;2022-07-05T01:35:42;14.00;99.90
37242;DHT22;23135;51.078;12.108;2022-07-05T01:38:11;13.90;99.90
37242;DHT22;23135;51.078;12.108;2022-07-05T01:40:36;13.90;99.90
37242;DHT22;23135;51.078;12.108;2022-07-05T01:43:03;13.80;99.90
37242;DHT22;23135;51.078;12.108;2022-07-05T01:45:29;13.80;99.90
37242;DHT22;23135;51.078;12.108;2022-07-05T01:48:12;13.80;99.90
37242;DHT22;23135;51.078;12.108;2022-07-05T01:50:47;13.80;99.90
37242;DHT22;23135;51.078;12.108;2022-07-05T01:53:24;13.70;99.90
37242;DHT22;23135;51.078;12.108;2022-07-05T01:55:53;13.70;99.90
37242;DHT22;23135;51.078;12.108;2022-07-05T01:58:21;13.70;99.90
37242;DHT22;23135;51.078;12.108;2022-07-05T02:00:49;13.60;99.90
37242;DHT22;23135;51.078;12.108;2022-07-05T02:03:16;13.50;99.90
37242;DHT22;23135;51.078;12.108;2022-07-05T02:05:43;13.40;99.90
37242;DHT22;23135;51.078;12.108;2022-07-05T02:08:09;13.40;99.90
37242;DHT22;23135;51.078;12.108;2022-07-05T02:10:36;13.30;99.90
37242;DHT22;23135;51.078;12.108;2022-07-05T02:13:03;13.30;99.90
37242;DHT22;23135;51.078;12.108;2022-07-05T02:15:32;13.30;99.90
37242;DHT22;23135;51.078;12.108;2022-07-05T02:17:59;13.30;99.90
37242;DHT22;23135;51.078;12.108;2022-07-05T02:20:25;13.30;99.90
37242;DHT22;23135;51.078;12.108;2022-07-05T02:22:51;13.20;99.90
37242;DHT22;23135;51.078;12.108;2022-07-05T02:25:16;13.20;99.90
37242;DHT22;23135;51.078;12.108;2022-07-05T02:27:42;13.10;99.90
37242;DHT22;23135;51.078;12.108;2022-07-05T02:30:08;13.00;99.90
37242;DHT22;23135;51.078;12.108;2022-07-05T02:32:34;13.00;99.90
37242;DHT22;23135;51.078;12.108;2022-07-05T02:34:59;12.90;99.90
37242;DHT22;23135;51.078;12.108;2022-07-05T02:37:25;12.90;99.90
37242;DHT22;23135;51.078;12.108;2022-07-05T02:39:51;12.90;99.90
37242;DHT22;23135;51.078;12.108;2022-07-05T02:42:16;12.90;99.90
37242;DHT22;23135;51.078;12.108;2022-07-05T02:44:42;12.90;99.90
37242;DHT22;23135;51.078;12.108;2022-07-05T02:47:07;12.90;99.90
37242;DHT22;23135;51.078;12.108;2022-07-05T02:49:33;12.90;99.90
37242;DHT22;23135;51.078;12.108;2022-07-05T02:51:58;12.80;99.90
37242;DHT22;23135;51.078;12.108;2022-07-05T02:54:24;12.80;99.90
37242;DHT22;23135;51.078;12.108;2022-07-05T02:56:50;12.80;99.90
37242;DHT22;23135;51.078;12.108;2022-07-05T02:59:15;12.80;99.90
37242;DHT22;23135;51.078;12.108;2022-07-05T03:01:41;12.80;99.90
37242;DHT22;23135;51.078;12.108;2022-07-05T03:04:06;12.70;99.90
37242;DHT22;23135;51.078;12.108;2022-07-05T03:06:32;12.70;99.90
37242;DHT22;23135;51.078;12.108;2022-07-05T03:08:58;12.70;99.90
37242;DHT22;23135;51.078;12.108;2022-07-05T03:11:23;12.80;99.90
37242;DHT22;23135;51.078;12.108;2022-07-05T03:13:49;12.70;99.90
37242;DHT22;23135;51.078;12.108;2022-07-05T03:16:14;12.70;99.90
37242;DHT22;23135;51.078;12.108;2022-07-05T03:18:40;12.70;99.90
37242;DHT22;23135;51.078;12.108;2022-07-05T03:21:06;12.60;99.90
37242;DHT22;23135;51.078;12.108;2022-07-05T03:23:31;12.60;99.90
37242;DHT22;23135;51.078;12.108;2022-07-05T03:25:57;12.60;99.90
37242;DHT22;23135;51.078;12.108;2022-07-05T03:28:22;12.60;99.90
37242;DHT22;23135;51.078;12.108;2022-07-05T03:30:48;12.70;99.90
37242;DHT22;23135;51.078;12.108;2022-07-05T03:33:14;12.80;99.90
37242;DHT22;23135;51.078;12.108;2022-07-05T03:35:39;12.90;99.90
37242;DHT22;23135;51.078;12.108;2022-07-05T03:38:05;12.90;99.90
37242;DHT22;23135;51.078;12.108;2022-07-05T03:40:30;13.00;99.90
37242;DHT22;23135;51.078;12.108;2022-07-05T03:42:56;13.10;99.90
37242;DHT22;23135;51.078;12.108;2022-07-05T03:45:22;13.10;99.90
37242;DHT22;23135;51.078;12.108;2022-07-05T03:47:48;13.10;99.90
37242;DHT22;23135;51.078;12.108;2022-07-05T03:50:13;13.10;99.90
37242;DHT22;23135;51.078;12.108;2022-07-05T03:52:39;13.00;99.90
37242;DHT22;23135;51.078;12.108;2022-07-05T03:55:05;13.00;99.90
37242;DHT22;23135;51.078;12.108;2022-07-05T03:57:31;13.00;99.90
37242;DHT22;23135;51.078;12.108;2022-07-05T03:59:56;13.00;99.90
37242;DHT22;23135;51.078;12.108;2022-07-05T04:02:22;13.00;99.90
37242;DHT22;23135;51.078;12.108;2022-07-05T04:04:48;13.00;99.90
37242;DHT22;23135;51.078;12.108;2022-07-05T04:07:13;13.00;99.90
37242;DHT22;23135;51.078;12.108;2022-07-05T04:09:39;13.00;99.90
37242;DHT22;23135;51.078;12.108;2022-07-05T04:12:05;12.90;99.90
37242;DHT22;23135;51.078;12.108;2022-07-05T04:14:31;12.90;99.90
37242;DHT22;23135;51.078;12.108;2022-07-05T04:16:57;13.00;99.90
37242;DHT22;23135;51.078;12.108;2022-07-05T04:19:22;13.10;99.90
37242;DHT22;23135;51.078;12.108;2022-07-05T04:21:48;13.10;99.90
37242;DHT22;23135;51.078;12.108;2022-07-05T04:24:13;13.10;99.90
37242;DHT22;23135;51.078;12.108;2022-07-05T04:26:39;13.20;99.90
37242;DHT22;23135;51.078;12.108;2022-07-05T04:29:05;13.30;99.90
37242;DHT22;23135;51.078;12.108;2022-07-05T04:31:30;13.30;99.90
37242;DHT22;23135;51.078;12.108;2022-07-05T04:33:56;13.30;99.90
37242;DHT22;23135;51.078;12.108;2022-07-05T04:36:22;13.40;99.90
37242;DHT22;23135;51.078;12.108;2022-07-05T04:38:48;13.50;99.90
37242;DHT22;23135;51.078;12.108;2022-07-05T04:41:14;13.60;99.90
37242;DHT22;23135;51.078;12.108;2022-07-05T04:43:39;13.60;99.90
37242;DHT22;23135;51.078;12.108;2022-07-05T04:46:05;13.70;99.90
37242;DHT22;23135;51.078;12.108;2022-07-05T04:48:30;13.80;99.90
37242;DHT22;23135;51.078;12.108;2022-07-05T04:50:56;13.90;99.90
37242;DHT22;23135;51.078;12.108;2022-07-05T04:53:22;14.00;99.90
37242;DHT22;23135;51.078;12.108;2022-07-05T04:55:48;14.10;99.90
37242;DHT22;23135;51.078;12.108;2022-07-05T04:58:13;14.30;99.90
37242;DHT22;23135;51.078;12.108;2022-07-05T05:00:39;14.40;99.90
37242;DHT22;23135;51.078;12.108;2022-07-05T05:03:04;14.50;99.90
37242;DHT22;23135;51.078;12.108;2022-07-05T05:05:30;14.70;99.90
37242;DHT22;23135;51.078;12.108;2022-07-05T05:07:55;14.80;99.90
37242;DHT22;23135;51.078;12.108;2022-07-05T05:10:21;15.00;99.90
37242;DHT22;23135;51.078;12.108;2022-07-05T05:12:46;15.10;99.90
37242;DHT22;23135;51.078;12.108;2022-07-05T05:15:12;15.30;99.90
37242;DHT22;23135;51.078;12.108;2022-07-05T05:17:44;15.40;99.90
37242;DHT22;23135;51.078;12.108;2022-07-05T05:20:17;15.60;99.90
37242;DHT22;23135;51.078;12.108;2022-07-05T05:22:43;15.60;99.90
37242;DHT22;23135;51.078;12.108;2022-07-05T05:25:10;15.80;99.90
37242;DHT22;23135;51.078;12.108;2022-07-05T05:27:44;15.80;99.90
37242;DHT22;23135;51.078;12.108;2022-07-05T05:30:11;16.00;99.90
37242;DHT22;23135;51.078;12.108;2022-07-05T05:32:37;16.00;99.90
37242;DHT22;23135;51.078;12.108;2022-07-05T05:35:03;16.10;99.90
37242;DHT22;23135;51.078;12.108;2022-07-05T05:37:29;16.20;99.90
37242;DHT22;23135;51.078;12.108;2022-07-05T05:39:54;16.30;99.90
37242;DHT22;23135;51.078;12.108;2022-07-05T05:42:20;16.40;99.90
37242;DHT22;23135;51.078;12.108;2022-07-05T05:44:45;16.50;99.90
37242;DHT22;23135;51.078;12.108;2022-07-05T05:47:11;16.60;99.90
37242;DHT22;23135;51.078;12.108;2022-07-05T05:49:36;16.70;99.90
37242;DHT22;23135;51.078;12.108;2022-07-05T05:52:02;16.90;99.90
37242;DHT22;23135;51.078;12.108;2022-07-05T05:54:28;17.10;99.90
37242;DHT22;23135;51.078;12.108;2022-07-05T05:56:53;17.30;99.90
37242;DHT22;23135;51.078;12.108;2022-07-05T05:59:19;17.60;99.90
37242;DHT22;23135;51.078;12.108;2022-07-05T06:01:44;17.90;99.90
37242;DHT22;23135;51.078;12.108;2022-07-05T06:04:10;18.00;99.90
37242;DHT22;23135;51.078;12.108;2022-07-05T06:06:35;17.90;99.90
37242;DHT22;23135;51.078;12.108;2022-07-05T06:09:02;18.10;99.90
37242;DHT22;23135;51.078;12.108;2022-07-05T06:11:27;18.40;99.90
37242;DHT22;23135;51.078;12.108;2022-07-05T06:13:53;18.60;99.90
37242;DHT22;23135;51.078;12.108;2022-07-05T06:16:18;18.70;99.90
37242;DHT22;23135;51.078;12.108;2022-07-05T06:18:44;18.70;99.90
37242;DHT22;23135;51.078;12.108;2022-07-05T06:21:09;18.50;99.90
37242;DHT22;23135;51.078;12.108;2022-07-05T06:23:35;18.50;99.90
37242;DHT22;23135;51.078;12.108;2022-07-05T06:26:01;18.50;99.90
37242;DHT22;23135;51.078;12.108;2022-07-05T06:28:26;18.80;99.90
37242;DHT22;23135;51.078;12.108;2022-07-05T06:30:52;18.70;99.90
37242;DHT22;23135;51.078;12.108;2022-07-05T06:33:19;18.70;99.90
37242;DHT22;23135;51.078;12.108;2022-07-05T06:35:44;18.90;99.90
37242;DHT22;23135;51.078;12.108;2022-07-05T06:38:10;19.00;99.90
37242;DHT22;23135;51.078;12.108;2022-07-05T06:40:38;19.00;99.90
37242;DHT22;23135;51.078;12.108;2022-07-05T06:43:05;19.40;99.90
37242;DHT22;23135;51.078;12.108;2022-07-05T06:45:31;19.50;99.90
37242;DHT22;23135;51.078;12.108;2022-07-05T06:47:59;19.20;99.90
37242;DHT22;23135;51.078;12.108;2022-07-05T06:50:26;19.00;99.90
37242;DHT22;23135;51.078;12.108;2022-07-05T06:52:52;19.30;99.90
37242;DHT22;23135;51.078;12.108;2022-07-05T06:55:18;19.60;99.90
37242;DHT22;23135;51.078;12.108;2022-07-05T06:57:44;19.70;99.90
37242;DHT22;23135;51.078;12.108;2022-07-05T07:00:11;20.00;99.90
37242;DHT22;23135;51.078;12.108;2022-07-05T07:02:37;20.10;99.90
37242;DHT22;23135;51.078;12.108;2022-07-05T07:05:03;20.10;99.90
37242;DHT22;23135;51.078;12.108;2022-07-05T07:07:31;20.00;99.90
37242;DHT22;23135;51.078;12.108;2022-07-05T07:10:15;20.30;99.90
37242;DHT22;23135;51.078;12.108;2022-07-05T07:12:40;20.50;99.90
37242;DHT22;23135;51.078;12.108;2022-07-05T07:15:06;20.40;99.90
37242;DHT22;23135;51.078;12.108;2022-07-05T07:17:32;20.50;99.90
37242;DHT22;23135;51.078;12.108;2022-07-05T07:19:58;20.90;99.90
37242;DHT22;23135;51.078;12.108;2022-07-05T07:22:23;21.30;99.90
37242;DHT22;23135;51.078;12.108;2022-07-05T07:24:49;21.50;99.70
37242;DHT22;23135;51.078;12.108;2022-07-05T07:27:14;21.60;99.90
37242;DHT22;23135;51.078;12.108;2022-07-05T07:29:40;21.80;99.90
37242;DHT22;23135;51.078;12.108;2022-07-05T07:32:07;22.10;99.50
37242;DHT22;23135;51.078;12.108;2022-07-05T07:34:33;22.30;98.60
37242;DHT22;23135;51.078;12.108;2022-07-05T07:36:59;22.50;98.70
37242;DHT22;23135;51.078;12.108;2022-07-05T07:39:25;22.60;98.50
37242;DHT22;23135;51.078;12.108;2022-07-05T07:41:52;22.90;97.70
37242;DHT22;23135;51.078;12.108;2022-07-05T07:44:18;22.90;96.90
37242;DHT22;23135;51.078;12.108;2022-07-05T07:46:44;22.90;96.90
37242;DHT22;23135;51.078;12.108;2022-07-05T07:49:10;22.90;96.40
37242;DHT22;23135;51.078;12.108;2022-07-05T07:51:37;23.00;96.40
37242;DHT22;23135;51.078;12.108;2022-07-05T07:54:03;22.90;96.10
37242;DHT22;23135;51.078;12.108;2022-07-05T07:56:28;23.00;95.40
37242;DHT22;23135;51.078;12.108;2022-07-05T07:58:54;22.90;94.50
37242;DHT22;23135;51.078;12.108;2022-07-05T08:01:20;23.20;95.20
37242;DHT22;23135;51.078;12.108;2022-07-05T08:03:46;23.30;95.50
37242;DHT22;23135;51.078;12.108;2022-07-05T08:06:12;23.40;94.30
37242;DHT22;23135;51.078;12.108;2022-07-05T08:08:40;23.70;94.70
37242;DHT22;23135;51.078;12.108;2022-07-05T08:11:07;23.80;93.70
37242;DHT22;23135;51.078;12.108;2022-07-05T08:13:34;23.60;93.40
37242;DHT22;23135;51.078;12.108;2022-07-05T08:16:00;23.70;92.50
37242;DHT22;23135;51.078;12.108;2022-07-05T08:18:25;24.20;92.30
37242;DHT22;23135;51.078;12.108;2022-07-05T08:21:10;24.60;91.90
37242;DHT22;23135;51.078;12.108;2022-07-05T08:23:55;24.60;91.60
37242;DHT22;23135;51.078;12.108;2022-07-05T08:26:21;24.50;91.50
37242;DHT22;23135;51.078;12.108;2022-07-05T08:28:46;24.70;90.80
37242;DHT22;23135;51.078;12.108;2022-07-05T08:31:12;24.80;90.80
37242;DHT22;23135;51.078;12.108;2022-07-05T08:33:38;24.80;90.50
37242;DHT22;23135;51.078;12.108;2022-07-05T08:36:03;25.20;90.80
37242;DHT22;23135;51.078;12.108;2022-07-05T08:38:29;25.60;89.40
37242;DHT22;23135;51.078;12.108;2022-07-05T08:40:56;25.70;89.60
37242;DHT22;23135;51.078;12.108;2022-07-05T08:43:25;25.70;89.60
37242;DHT22;23135;51.078;12.108;2022-07-05T08:45:53;25.70;88.10
37242;DHT22;23135;51.078;12.108;2022-07-05T08:48:19;25.60;89.00
37242;DHT22;23135;51.078;12.108;2022-07-05T08:50:46;25.60;87.60
37242;DHT22;23135;51.078;12.108;2022-07-05T08:53:15;25.90;87.10
37242;DHT22;23135;51.078;12.108;2022-07-05T08:55:41;26.10;84.20
37242;DHT22;23135;51.078;12.108;2022-07-05T08:58:07;26.00;84.70
37242;DHT22;23135;51.078;12.108;2022-07-05T09:00:33;26.20;85.60
37242;DHT22;23135;51.078;12.108;2022-07-05T09:03:00;26.50;85.80
37242;DHT22;23135;51.078;12.108;2022-07-05T09:05:26;26.70;84.20
37242;DHT22;23135;51.078;12.108;2022-07-05T09:07:59;26.50;83.40
37242;DHT22;23135;51.078;12.108;2022-07-05T09:10:29;26.70;83.60
37242;DHT22;23135;51.078;12.108;2022-07-05T09:12:56;26.40;80.60
37242;DHT22;23135;51.078;12.108;2022-07-05T09:15:23;26.30;81.20
37242;DHT22;23135;51.078;12.108;2022-07-05T09:17:49;26.30;79.40
37242;DHT22;23135;51.078;12.108;2022-07-05T09:20:19;26.40;81.20
37242;DHT22;23135;51.078;12.108;2022-07-05T09:22:52;26.50;77.50
37242;DHT22;23135;51.078;12.108;2022-07-05T09:25:30;26.70;78.40
37242;DHT22;23135;51.078;12.108;2022-07-05T09:28:02;27.20;78.00
37242;DHT22;23135;51.078;12.108;2022-07-05T09:33:10;27.70;76.40
37242;DHT22;23135;51.078;12.108;2022-07-05T09:35:37;27.40;77.00
37242;DHT22;23135;51.078;12.108;2022-07-05T09:38:04;27.20;76.60
37242;DHT22;23135;51.078;12.108;2022-07-05T09:40:31;27.40;76.10
37242;DHT22;23135;51.078;12.108;2022-07-05T09:43:18;27.70;76.00
37242;DHT22;23135;51.078;12.108;2022-07-05T09:45:52;27.60;75.20
37242;DHT22;23135;51.078;12.108;2022-07-05T09:48:18;27.20;73.70
37242;DHT22;23135;51.078;12.108;2022-07-05T09:50:44;27.00;73.30
37242;DHT22;23135;51.078;12.108;2022-07-05T09:53:10;26.30;71.30
37242;DHT22;23135;51.078;12.108;2022-07-05T09:55:37;26.10;72.50
37242;DHT22;23135;51.078;12.108;2022-07-05T09:58:03;26.40;72.20
37242;DHT22;23135;51.078;12.108;2022-07-05T10:00:29;26.70;71.00
37242;DHT22;23135;51.078;12.108;2022-07-05T10:02:56;26.90;70.70
37242;DHT22;23135;51.078;12.108;2022-07-05T10:05:31;27.10;73.30
37242;DHT22;23135;51.078;12.108;2022-07-05T10:08:01;27.30;71.30
37242;DHT22;23135;51.078;12.108;2022-07-05T10:10:31;27.50;70.90
37242;DHT22;23135;51.078;12.108;2022-07-05T10:13:02;27.40;69.90
37242;DHT22;23135;51.078;12.108;2022-07-05T10:15:32;27.80;71.90
37242;DHT22;23135;51.078;12.108;2022-07-05T10:17:59;27.70;71.00
37242;DHT22;23135;51.078;12.108;2022-07-05T10:20:39;27.30;70.70
37242;DHT22;23135;51.078;12.108;2022-07-05T10:23:13;27.00;72.10
37242;DHT22;23135;51.078;12.108;2022-07-05T10:25:41;27.20;71.60
37242;DHT22;23135;51.078;12.108;2022-07-05T10:28:08;27.20;70.90
37242;DHT22;23135;51.078;12.108;2022-07-05T10:30:34;27.40;71.50
37242;DHT22;23135;51.078;12.108;2022-07-05T10:33:05;26.80;71.10
37242;DHT22;23135;51.078;12.108;2022-07-05T10:35:31;26.70;71.90
37242;DHT22;23135;51.078;12.108;2022-07-05T10:37:58;27.00;71.80
37242;DHT22;23135;51.078;12.108;2022-07-05T10:40:24;27.80;70.30
37242;DHT22;23135;51.078;12.108;2022-07-05T10:42:55;27.90;69.40
37242;DHT22;23135;51.078;12.108;2022-07-05T10:45:31;27.90;70.90
37242;DHT22;23135;51.078;12.108;2022-07-05T10:53:14;28.30;67.60
37242;DHT22;23135;51.078;12.108;2022-07-05T10:55:54;28.80;67.70
37242;DHT22;23135;51.078;12.108;2022-07-05T10:58:24;28.30;68.50
37242;DHT22;23135;51.078;12.108;2022-07-05T11:06:07;29.30;68.30
37242;DHT22;23135;51.078;12.108;2022-07-05T11:11:41;29.10;67.00
37242;DHT22;23135;51.078;12.108;2022-07-05T11:19:58;27.20;68.10
37242;DHT22;23135;51.078;12.108;2022-07-05T11:22:21;27.00;68.80
37242;DHT22;23135;51.078;12.108;2022-07-05T11:24:47;27.60;68.00
37242;DHT22;23135;51.078;12.108;2022-07-05T11:27:13;28.10;68.90
37242;DHT22;23135;51.078;12.108;2022-07-05T11:32:10;28.40;66.60
37242;DHT22;23135;51.078;12.108;2022-07-05T11:34:37;28.10;66.10
37242;DHT22;23135;51.078;12.108;2022-07-05T11:37:22;28.50;67.40
37242;DHT22;23135;51.078;12.108;2022-07-05T11:42:33;28.50;65.00
37242;DHT22;23135;51.078;12.108;2022-07-05T11:45:08;28.70;66.00
37242;DHT22;23135;51.078;12.108;2022-07-05T11:47:34;28.70;64.00
37242;DHT22;23135;51.078;12.108;2022-07-05T11:50:00;28.30;64.40
37242;DHT22;23135;51.078;12.108;2022-07-05T11:52:31;27.60;65.00
37242;DHT22;23135;51.078;12.108;2022-07-05T11:54:58;27.10;67.00
37242;DHT22;23135;51.078;12.108;2022-07-05T11:57:24;27.20;67.30
37242;DHT22;23135;51.078;12.108;2022-07-05T11:59:50;27.80;67.00
37242;DHT22;23135;51.078;12.108;2022-07-05T12:02:16;28.00;65.60
37242;DHT22;23135;51.078;12.108;2022-07-05T12:04:50;28.20;66.00
37242;DHT22;23135;51.078;12.108;2022-07-05T12:09:52;28.60;64.90
37242;DHT22;23135;51.078;12.108;2022-07-05T12:12:36;28.80;64.70
37242;DHT22;23135;51.078;12.108;2022-07-05T12:15:14;28.70;64.60
37242;DHT22;23135;51.078;12.108;2022-07-05T12:17:44;29.00;64.60
37242;DHT22;23135;51.078;12.108;2022-07-05T12:20:11;29.30;64.80
37242;DHT22;23135;51.078;12.108;2022-07-05T12:22:46;28.80;64.60
37242;DHT22;23135;51.078;12.108;2022-07-05T12:25:14;27.80;65.00
37242;DHT22;23135;51.078;12.108;2022-07-05T12:27:41;28.50;63.60
37242;DHT22;23135;51.078;12.108;2022-07-05T12:30:09;28.50;63.70
37242;DHT22;23135;51.078;12.108;2022-07-05T12:32:53;28.60;63.00
37242;DHT22;23135;51.078;12.108;2022-07-05T12:35:29;29.00;63.20
37242;DHT22;23135;51.078;12.108;2022-07-05T12:37:56;29.50;63.80
37242;DHT22;23135;51.078;12.108;2022-07-05T12:40:22;29.40;61.80
37242;DHT22;23135;51.078;12.108;2022-07-05T12:43:01;29.30;60.80
37242;DHT22;23135;51.078;12.108;2022-07-05T12:45:27;29.30;61.80
37242;DHT22;23135;51.078;12.108;2022-07-05T12:47:56;29.60;61.90
37242;DHT22;23135;51.078;12.108;2022-07-05T12:50:30;30.00;61.70
37242;DHT22;23135;51.078;12.108;2022-07-05T12:55:22;29.90;60.70
37242;DHT22;23135;51.078;12.108;2022-07-05T12:58:06;29.70;61.90
37242;DHT22;23135;51.078;12.108;2022-07-05T13:00:32;30.00;61.30
37242;DHT22;23135;51.078;12.108;2022-07-05T13:02:57;30.40;61.20
37242;DHT22;23135;51.078;12.108;2022-07-05T13:05:24;29.30;61.10
37242;DHT22;23135;51.078;12.108;2022-07-05T13:07:51;28.90;62.10
37242;DHT22;23135;51.078;12.108;2022-07-05T13:10:21;29.50;61.80
37242;DHT22;23135;51.078;12.108;2022-07-05T13:12:47;29.40;60.10
37242;DHT22;23135;51.078;12.108;2022-07-05T13:15:14;29.50;61.50
37242;DHT22;23135;51.078;12.108;2022-07-05T13:17:40;29.40;60.30
37242;DHT22;23135;51.078;12.108;2022-07-05T13:20:07;29.60;58.00
37242;DHT22;23135;51.078;12.108;2022-07-05T13:22:32;30.00;57.40
37242;DHT22;23135;51.078;12.108;2022-07-05T13:24:58;30.30;57.60
37242;DHT22;23135;51.078;12.108;2022-07-05T13:27:23;29.30;57.30
37242;DHT22;23135;51.078;12.108;2022-07-05T13:29:49;29.30;58.10
37242;DHT22;23135;51.078;12.108;2022-07-05T13:32:15;29.30;56.70
37242;DHT22;23135;51.078;12.108;2022-07-05T13:34:42;29.50;57.80
37242;DHT22;23135;51.078;12.108;2022-07-05T13:37:08;29.40;57.60
37242;DHT22;23135;51.078;12.108;2022-07-05T13:39:34;29.80;57.60
37242;DHT22;23135;51.078;12.108;2022-07-05T13:41:59;30.10;56.60
37242;DHT22;23135;51.078;12.108;2022-07-05T13:44:25;29.90;56.50
37242;DHT22;23135;51.078;12.108;2022-07-05T13:46:51;29.50;55.60
37242;DHT22;23135;51.078;12.108;2022-07-05T13:49:17;29.40;55.70
37242;DHT22;23135;51.078;12.108;2022-07-05T13:51:42;29.20;55.60
37242;DHT22;23135;51.078;12.108;2022-07-05T13:54:08;29.20;55.40
37242;DHT22;23135;51.078;12.108;2022-07-05T13:56:34;29.00;54.70
37242;DHT22;23135;51.078;12.108;2022-07-05T13:59:01;28.00;55.20
37242;DHT22;23135;51.078;12.108;2022-07-05T14:01:27;28.00;56.60
37242;DHT22;23135;51.078;12.108;2022-07-05T14:03:54;28.20;56.20
37242;DHT22;23135;51.078;12.108;2022-07-05T14:06:22;28.60;56.90
37242;DHT22;23135;51.078;12.108;2022-07-05T14:08:47;28.70;55.20
37242;DHT22;23135;51.078;12.108;2022-07-05T14:11:13;28.90;54.60
37242;DHT22;23135;51.078;12.108;2022-07-05T14:13:39;29.20;55.10
37242;DHT22;23135;51.078;12.108;2022-07-05T14:16:05;29.00;55.60
37242;DHT22;23135;51.078;12.108;2022-07-05T14:18:31;28.90;56.20
37242;DHT22;23135;51.078;12.108;2022-07-05T14:20:57;28.80;56.00
37242;DHT22;23135;51.078;12.108;2022-07-05T14:23:22;28.90;55.70
37242;DHT22;23135;51.078;12.108;2022-07-05T14:25:48;29.00;55.50
37242;DHT22;23135;51.078;12.108;2022-07-05T14:28:14;29.10;55.80
37242;DHT22;23135;51.078;12.108;2022-07-05T14:30:42;29.30;55.10
37242;DHT22;23135;51.078;12.108;2022-07-05T14:33:14;29.40;56.40
37242;DHT22;23135;51.078;12.108;2022-07-05T14:35:40;28.90;56.30
37242;DHT22;23135;51.078;12.108;2022-07-05T14:38:06;29.00;57.60
37242;DHT22;23135;51.078;12.108;2022-07-05T14:40:33;29.20;56.50
37242;DHT22;23135;51.078;12.108;2022-07-05T14:42:59;29.20;57.60
37242;DHT22;23135;51.078;12.108;2022-07-05T14:45:25;29.10;57.40
37242;DHT22;23135;51.078;12.108;2022-07-05T14:47:52;29.00;58.20
37242;DHT22;23135;51.078;12.108;2022-07-05T14:50:18;28.80;58.50
37242;DHT22;23135;51.078;12.108;2022-07-05T14:52:46;28.60;58.60
37242;DHT22;23135;51.078;12.108;2022-07-05T14:55:11;28.80;58.90
37242;DHT22;23135;51.078;12.108;2022-07-05T14:57:38;28.50;58.60
37242;DHT22;23135;51.078;12.108;2022-07-05T15:00:09;27.90;59.60
37242;DHT22;23135;51.078;12.108;2022-07-05T15:02:35;27.70;60.00
37242;DHT22;23135;51.078;12.108;2022-07-05T15:05:02;27.30;59.80
37242;DHT22;23135;51.078;12.108;2022-07-05T15:07:28;27.50;60.50
37242;DHT22;23135;51.078;12.108;2022-07-05T15:09:53;27.70;61.20
37242;DHT22;23135;51.078;12.108;2022-07-05T15:12:20;27.80;60.10
37242;DHT22;23135;51.078;12.108;2022-07-05T15:14:45;27.60;60.20
37242;DHT22;23135;51.078;12.108;2022-07-05T15:17:11;27.60;60.90
37242;DHT22;23135;51.078;12.108;2022-07-05T15:19:37;27.60;60.70
37242;DHT22;23135;51.078;12.108;2022-07-05T15:22:04;27.00;60.70
37242;DHT22;23135;51.078;12.108;2022-07-05T15:24:30;26.80;61.80
37242;DHT22;23135;51.078;12.108;2022-07-05T15:26:56;26.90;62.20
37242;DHT22;23135;51.078;12.108;2022-07-05T15:29:21;26.70;63.00
37242;DHT22;23135;51.078;12.108;2022-07-05T15:31:47;26.50;63.80
37242;DHT22;23135;51.078;12.108;2022-07-05T15:34:13;26.80;64.00
37242;DHT22;23135;51.078;12.108;2022-07-05T15:36:39;27.00;64.40
37242;DHT22;23135;51.078;12.108;2022-07-05T15:39:05;26.90;64.00
37242;DHT22;23135;51.078;12.108;2022-07-05T15:41:32;26.60;64.70
37242;DHT22;23135;51.078;12.108;2022-07-05T15:43:58;26.60;64.20
37242;DHT22;23135;51.078;12.108;2022-07-05T15:46:24;26.50;64.70